Terminal Aerodrome Forecast
Issued by NWS Bismarck, ND

Home | Current Version | Previous Version | Text Only | Print | Product List | Glossary On
Versions: 1 2 3 4 5 6 7 8 9 10 11 12 13 14 15 16 17 18 19 20 21
270
FTUS43 KBIS 022341 AAB
TAFISN
TAF AMD
KISN 022341Z 0300/0324 19005KT P6SM BKN035
     FM030200 18005KT P6SM BKN035
     FM031100 19005KT P6SM SCT200
     FM031600 19006KT P6SM VCSH BKN035
     FM031800 20008KT P6SM OVC015
     FM032100 22009KT P6SM OVC020
     FM032300 25008KT P6SM OVC025=

USA.gov is the U.S. government's official web portal to all federal, state and local government web resources and services.